createdAt,value
2017-07-17T00:00:03.962Z,22.36
2017-07-17T00:01:04.308Z,22.33
2017-07-17T00:02:04.005Z,22.38
2017-07-17T00:03:03.710Z,22.35
2017-07-17T00:04:04.062Z,22.33
2017-07-17T00:05:04.085Z,22.33
2017-07-17T00:06:04.105Z,22.22
2017-07-17T00:07:04.455Z,22.28
2017-07-17T00:08:04.157Z,22.3
2017-07-17T00:09:04.181Z,22.26
2017-07-17T00:10:04.210Z,22.18
2017-07-17T00:11:04.228Z,22.25
2017-07-17T00:12:04.595Z,22.2
2017-07-17T00:13:03.957Z,22.17
2017-07-17T00:14:04.310Z,22.22
2017-07-17T00:15:04.342Z,22.13
2017-07-17T00:16:04.357Z,22.13
2017-07-17T00:17:04.702Z,22.11
2017-07-17T00:18:04.404Z,22.17
2017-07-17T00:19:04.104Z,22.11
2017-07-17T00:20:04.456Z,22.06
2017-07-17T00:21:04.153Z,21.99
2017-07-17T00:22:04.826Z,22.04
2017-07-17T00:23:04.204Z,21.99
2017-07-17T00:24:04.548Z,22.04
2017-07-17T00:25:04.252Z,22.06
2017-07-17T00:26:04.926Z,22
2017-07-17T00:27:04.300Z,22.02
2017-07-17T00:28:04.648Z,22.04
2017-07-17T00:29:04.673Z,22.06
2017-07-17T00:30:05.019Z,21.98
2017-07-17T00:31:04.718Z,21.99
2017-07-17T00:32:04.754Z,21.98
2017-07-17T00:33:04.450Z,21.95
2017-07-17T00:34:04.802Z,21.96
2017-07-17T00:35:04.821Z,21.91
2017-07-17T00:36:05.165Z,21.88
2017-07-17T00:37:04.550Z,21.8
2017-07-17T00:38:04.894Z,21.88
2017-07-17T00:39:05.394Z,21.85
2017-07-17T00:40:04.642Z,21.83
2017-07-17T00:41:04.971Z,21.83
2017-07-17T00:42:05.325Z,21.83
2017-07-17T00:43:05.026Z,21.77
2017-07-17T00:44:05.049Z,21.79
2017-07-17T00:45:05.391Z,21.8
2017-07-17T00:46:05.098Z,21.77
2017-07-17T00:47:05.439Z,21.7
2017-07-17T00:48:05.149Z,21.7
2017-07-17T00:49:05.167Z,21.73
2017-07-17T00:50:05.511Z,21.64
2017-07-17T00:51:05.215Z,21.67
2017-07-17T00:52:05.262Z,21.72
2017-07-17T00:53:05.266Z,21.66
2017-07-17T00:54:04.985Z,21.57
2017-07-17T00:55:05.307Z,21.64
2017-07-17T00:56:05.362Z,21.58
2017-07-17T00:57:05.045Z,21.64
2017-07-17T00:58:05.388Z,21.58
2017-07-17T00:59:05.413Z,21.64
2017-07-17T01:00:05.860Z,21.61
2017-07-17T01:01:05.137Z,21.54
2017-07-17T01:02:05.220Z,21.58
2017-07-17T01:03:05.858Z,21.6
2017-07-17T01:04:05.560Z,21.6
2017-07-17T01:05:05.574Z,21.58
2017-07-17T01:06:05.281Z,21.61
2017-07-17T01:07:06.022Z,21.5
2017-07-17T01:08:05.325Z,21.62
2017-07-17T01:09:05.339Z,21.6
2017-07-17T01:10:05.367Z,21.5
2017-07-17T01:11:05.388Z,21.55
2017-07-17T01:12:05.840Z,21.5
2017-07-17T01:13:05.429Z,21.48
2017-07-17T01:14:05.863Z,21.48
2017-07-17T01:15:05.864Z,21.48
2017-07-17T01:16:06.162Z,21.45
2017-07-17T01:17:06.178Z,21.45
2017-07-17T01:18:05.970Z,21.43
2017-07-17T01:19:06.001Z,21.35
2017-07-17T01:20:05.928Z,21.37
2017-07-17T01:21:06.029Z,21.5
2017-07-17T01:22:06.070Z,21.4
2017-07-17T01:23:06.065Z,21.48
2017-07-17T01:24:06.339Z,21.43
2017-07-17T01:25:06.368Z,21.46
2017-07-17T01:26:05.772Z,21.46
2017-07-17T01:27:06.091Z,21.35
2017-07-17T01:28:05.901Z,21.5
2017-07-17T01:29:05.902Z,21.36
2017-07-17T01:30:06.485Z,21.35
2017-07-17T01:31:05.935Z,21.35
2017-07-17T01:32:06.671Z,21.29
2017-07-17T01:33:06.233Z,21.39
2017-07-17T01:34:06.260Z,21.4
2017-07-17T01:35:06.043Z,21.39
2017-07-17T01:36:06.396Z,21.35
2017-07-17T01:37:06.385Z,21.4
2017-07-17T01:38:06.704Z,21.4
2017-07-17T01:39:06.750Z,21.39
2017-07-17T01:40:06.421Z,21.4
2017-07-17T01:41:06.849Z,21.36
2017-07-17T01:42:06.125Z,21.42
2017-07-17T01:43:06.482Z,21.4
2017-07-17T01:44:06.827Z,21.37
2017-07-17T01:45:06.857Z,21.4
2017-07-17T01:46:06.877Z,21.4
2017-07-17T01:47:06.898Z,21.4
2017-07-17T01:48:06.597Z,21.33
2017-07-17T01:49:06.619Z,21.39
2017-07-17T01:50:06.967Z,21.33
2017-07-17T01:51:06.342Z,21.37
2017-07-17T01:52:07.015Z,21.43
2017-07-17T01:53:06.396Z,21.25
2017-07-17T01:54:07.068Z,21.35
2017-07-17T01:55:07.102Z,21.36
2017-07-17T01:56:06.783Z,21.29
2017-07-17T01:57:06.813Z,21.35
2017-07-17T01:58:06.514Z,21.39
2017-07-17T01:59:07.185Z,21.29
2017-07-17T02:00:07.213Z,21.3
2017-07-17T02:01:06.911Z,21.33
2017-07-17T02:02:06.939Z,21.33
2017-07-17T02:03:07.280Z,21.32
2017-07-17T02:04:06.987Z,21.32
2017-07-17T02:05:07.012Z,21.35
2017-07-17T02:06:07.351Z,21.33
2017-07-17T02:07:07.054Z,21.29
2017-07-17T02:08:06.760Z,21.25
2017-07-17T02:09:07.418Z,21.24
2017-07-17T02:10:06.804Z,21.25
2017-07-17T02:11:07.148Z,21.27
2017-07-17T02:12:07.178Z,21.21
2017-07-17T02:13:06.886Z,21.21
2017-07-17T02:14:06.890Z,21.25
2017-07-17T02:15:07.243Z,21.25
2017-07-17T02:16:06.950Z,21.24
2017-07-17T02:17:08.010Z,21.29
2017-07-17T02:18:07.469Z,21.21
2017-07-17T02:19:07.336Z,21.3
2017-07-17T02:20:07.365Z,21.25
2017-07-17T02:21:07.706Z,21.24
2017-07-17T02:22:07.409Z,21.21
2017-07-17T02:23:07.756Z,21.22
2017-07-17T02:24:07.133Z,21.25
2017-07-17T02:25:07.479Z,21.24
2017-07-17T02:26:07.197Z,21.27
2017-07-17T02:27:07.857Z,21.2
2017-07-17T02:28:07.879Z,21.21
2017-07-17T02:29:07.909Z,21.18
2017-07-17T02:30:07.604Z,21.22
2017-07-17T02:31:07.627Z,21.22
2017-07-17T02:32:07.667Z,21.18
2017-07-17T02:33:07.694Z,21.18
2017-07-17T02:34:07.692Z,21.2
2017-07-17T02:35:07.714Z,21.17
2017-07-17T02:36:07.750Z,21.18
2017-07-17T02:37:07.442Z,21.18
2017-07-17T02:38:07.467Z,21.15
2017-07-17T02:39:09.553Z,21.18
2017-07-17T02:40:08.167Z,21.18
2017-07-17T02:41:08.185Z,21.18
2017-07-17T02:42:08.219Z,21.12
2017-07-17T02:43:07.908Z,21.18
2017-07-17T02:44:07.930Z,21.11
2017-07-17T02:45:07.960Z,21.14
2017-07-17T02:46:07.660Z,21.24
2017-07-17T02:47:08.005Z,21.15
2017-07-17T02:48:08.025Z,21.15
2017-07-17T02:49:07.730Z,21.17
2017-07-17T02:50:07.756Z,21.12
2017-07-17T02:51:08.102Z,21.15
2017-07-17T02:52:08.123Z,21.12
2017-07-17T02:53:08.143Z,21.11
2017-07-17T02:54:08.168Z,21.14
2017-07-17T02:55:08.529Z,21.09
2017-07-17T02:56:08.220Z,21.14
2017-07-17T02:57:08.239Z,21.17
2017-07-17T02:58:08.268Z,21.05
2017-07-17T02:59:08.338Z,21.11
2017-07-17T03:00:08.642Z,21.07
2017-07-17T03:01:08.017Z,21.17
2017-07-17T03:02:08.044Z,21.09
2017-07-17T03:03:08.388Z,21.11
2017-07-17T03:04:08.801Z,21.03
2017-07-17T03:05:08.435Z,21.12
2017-07-17T03:06:08.457Z,21.02
2017-07-17T03:07:08.798Z,21.06
2017-07-17T03:08:08.502Z,21.06
2017-07-17T03:09:08.850Z,21.05
2017-07-17T03:10:08.555Z,21
2017-07-17T03:11:08.910Z,21.05
2017-07-17T03:12:08.964Z,21.11
2017-07-17T03:13:08.301Z,21.05
2017-07-17T03:14:08.650Z,21.03
2017-07-17T03:15:08.667Z,21
2017-07-17T03:16:08.696Z,21.06
2017-07-17T03:17:09.037Z,21.03
2017-07-17T03:18:08.744Z,21.06
2017-07-17T03:19:08.765Z,21.02
2017-07-17T03:20:09.110Z,21
2017-07-17T03:21:09.131Z,21
2017-07-17T03:22:08.838Z,21.06
2017-07-17T03:23:08.896Z,21.02
2017-07-17T03:24:08.879Z,21.02
2017-07-17T03:25:09.236Z,21.05
2017-07-17T03:26:08.932Z,20.95
2017-07-17T03:27:08.644Z,21
2017-07-17T03:28:08.975Z,21
2017-07-17T03:29:09.324Z,21
2017-07-17T03:30:09.023Z,21.05
2017-07-17T03:31:09.487Z,21.02
2017-07-17T03:32:09.069Z,20.9
2017-07-17T03:33:09.207Z,20.92
2017-07-17T03:34:09.122Z,21.03
2017-07-17T03:35:08.936Z,20.9
2017-07-17T03:36:09.584Z,20.93
2017-07-17T03:37:09.612Z,20.88
2017-07-17T03:38:09.308Z,21
2017-07-17T03:39:09.236Z,20.93
2017-07-17T03:40:09.065Z,20.96
2017-07-17T03:41:09.284Z,20.95
2017-07-17T03:42:09.308Z,20.88
2017-07-17T03:43:09.665Z,20.88
2017-07-17T03:44:09.677Z,20.92
2017-07-17T03:45:09.851Z,20.97
2017-07-17T03:46:09.729Z,20.95
2017-07-17T03:47:09.753Z,20.88
2017-07-17T03:48:09.127Z,20.95
2017-07-17T03:49:09.153Z,20.95
2017-07-17T03:50:09.826Z,20.96
2017-07-17T03:51:09.204Z,20.92
2017-07-17T03:52:09.603Z,20.81
2017-07-17T03:53:09.572Z,20.88
2017-07-17T03:54:09.609Z,20.93
2017-07-17T03:55:09.750Z,20.84
2017-07-17T03:56:09.648Z,20.92
2017-07-17T03:57:09.664Z,20.88
2017-07-17T03:58:09.364Z,20.9
2017-07-17T03:59:09.888Z,20.84
2017-07-17T04:00:09.740Z,20.84
2017-07-17T04:01:10.175Z,20.9
2017-07-17T04:02:10.107Z,20.85
2017-07-17T04:03:10.131Z,20.77
2017-07-17T04:04:09.926Z,20.85
2017-07-17T04:05:09.531Z,20.78
2017-07-17T04:06:09.550Z,20.8
2017-07-17T04:07:10.223Z,20.88
2017-07-17T04:08:10.248Z,20.81
2017-07-17T04:09:09.950Z,20.88
2017-07-17T04:10:09.973Z,20.84
2017-07-17T04:11:10.322Z,20.84
2017-07-17T04:12:10.469Z,20.9
2017-07-17T04:13:10.131Z,20.85
2017-07-17T04:14:09.835Z,20.84
2017-07-17T04:15:10.316Z,20.81
2017-07-17T04:16:10.586Z,20.81
2017-07-17T04:17:10.132Z,20.85
2017-07-17T04:18:10.485Z,20.88
2017-07-17T04:19:10.182Z,20.8
2017-07-17T04:20:10.537Z,20.9
2017-07-17T04:21:10.231Z,20.82
2017-07-17T04:22:10.600Z,20.8
2017-07-17T04:23:10.281Z,20.75
2017-07-17T04:24:10.009Z,20.75
2017-07-17T04:25:10.648Z,20.84
2017-07-17T04:26:10.022Z,20.82
2017-07-17T04:27:10.691Z,20.75
2017-07-17T04:28:10.396Z,20.8
2017-07-17T04:29:10.417Z,20.87
2017-07-17T04:30:10.440Z,20.87
2017-07-17T04:31:10.788Z,20.84
2017-07-17T04:32:10.813Z,20.82
2017-07-17T04:33:10.836Z,20.8
2017-07-17T04:34:10.550Z,20.77
2017-07-17T04:35:10.569Z,20.8
2017-07-17T04:36:10.921Z,20.8
2017-07-17T04:37:10.930Z,20.81
2017-07-17T04:38:10.645Z,20.74
2017-07-17T04:39:10.973Z,20.9
2017-07-17T04:40:10.439Z,20.88
2017-07-17T04:41:10.700Z,20.9
2017-07-17T04:42:10.725Z,20.92
2017-07-17T04:43:11.079Z,20.84
2017-07-17T04:44:11.098Z,20.77
2017-07-17T04:45:11.117Z,20.85
2017-07-17T04:46:10.818Z,20.82
2017-07-17T04:47:10.518Z,20.77
2017-07-17T04:48:10.863Z,20.9
2017-07-17T04:49:11.214Z,20.84
2017-07-17T04:50:11.245Z,20.8
2017-07-17T04:51:11.255Z,20.85
2017-07-17T04:52:11.285Z,20.8
2017-07-17T04:53:11.310Z,20.8
2017-07-17T04:54:10.682Z,20.82
2017-07-17T04:55:11.149Z,20.8
2017-07-17T04:56:11.381Z,20.84
2017-07-17T04:57:11.086Z,20.81
2017-07-17T04:58:11.429Z,20.78
2017-07-17T04:59:11.127Z,20.77
2017-07-17T05:00:11.476Z,20.78
2017-07-17T05:01:11.169Z,20.82
2017-07-17T05:02:11.193Z,20.82
2017-07-17T05:03:11.217Z,20.87
2017-07-17T05:04:11.562Z,20.81
2017-07-17T05:05:11.583Z,20.9
2017-07-17T05:06:11.610Z,20.84
2017-07-17T05:07:11.314Z,20.78
2017-07-17T05:08:11.660Z,20.78
2017-07-17T05:09:11.360Z,20.85
2017-07-17T05:10:11.385Z,20.82
2017-07-17T05:11:11.406Z,20.85
2017-07-17T05:12:11.754Z,20.8
2017-07-17T05:13:11.453Z,20.81
2017-07-17T05:14:11.512Z,20.81
2017-07-17T05:15:11.826Z,20.84
2017-07-17T05:16:11.849Z,20.85
2017-07-17T05:17:11.547Z,20.85
2017-07-17T05:18:11.247Z,20.87
2017-07-17T05:19:11.911Z,20.87
2017-07-17T05:20:11.621Z,20.84
2017-07-17T05:21:11.957Z,20.85
2017-07-17T05:22:11.988Z,20.87
2017-07-17T05:23:11.689Z,20.8
2017-07-17T05:24:11.706Z,20.85
2017-07-17T05:25:12.060Z,20.87
2017-07-17T05:26:11.761Z,20.9
2017-07-17T05:27:11.785Z,20.9
2017-07-17T05:28:11.958Z,20.81
2017-07-17T05:29:11.829Z,20.84
2017-07-17T05:30:12.181Z,20.87
2017-07-17T05:31:11.882Z,20.85
2017-07-17T05:32:12.229Z,20.81
2017-07-17T05:33:11.922Z,20.87
2017-07-17T05:34:11.945Z,20.77
2017-07-17T05:35:12.337Z,20.87
2017-07-17T05:36:12.084Z,20.78
2017-07-17T05:37:12.136Z,20.8
2017-07-17T05:38:12.043Z,20.84
2017-07-17T05:39:12.385Z,20.84
2017-07-17T05:40:12.407Z,20.78
2017-07-17T05:41:12.120Z,20.87
2017-07-17T05:42:12.459Z,20.85
2017-07-17T05:43:12.153Z,20.81
2017-07-17T05:44:11.859Z,20.85
2017-07-17T05:45:12.527Z,20.75
2017-07-17T05:46:12.227Z,20.84
2017-07-17T05:47:11.931Z,20.81
2017-07-17T05:48:11.955Z,20.85
2017-07-17T05:49:12.619Z,20.87
2017-07-17T05:50:12.321Z,20.84
2017-07-17T05:51:12.347Z,20.85
2017-07-17T05:52:12.694Z,20.81
2017-07-17T05:53:12.393Z,20.85
2017-07-17T05:54:12.092Z,20.75
2017-07-17T05:55:12.765Z,20.84
2017-07-17T05:56:12.786Z,20.84
2017-07-17T05:57:12.810Z,20.82
2017-07-17T05:58:12.832Z,20.84
2017-07-17T05:59:12.534Z,20.87
2017-07-17T06:00:12.233Z,20.82
2017-07-17T06:01:13.406Z,20.8
2017-07-17T06:02:12.608Z,20.84
2017-07-17T06:03:12.948Z,20.84
2017-07-17T06:04:12.647Z,20.88
2017-07-17T06:05:12.998Z,20.87
2017-07-17T06:06:12.703Z,20.78
2017-07-17T06:07:12.723Z,20.81
2017-07-17T06:08:13.161Z,20.72
2017-07-17T06:09:12.866Z,20.82
2017-07-17T06:10:13.187Z,20.82
2017-07-17T06:11:12.814Z,20.85
2017-07-17T06:12:13.165Z,20.8
2017-07-17T06:13:13.180Z,20.78
2017-07-17T06:14:12.896Z,20.78
2017-07-17T06:15:12.932Z,20.85
2017-07-17T06:16:13.252Z,20.92
2017-07-17T06:17:13.280Z,20.85
2017-07-17T06:18:12.977Z,20.87
2017-07-17T06:19:13.019Z,20.93
2017-07-17T06:20:13.341Z,20.93
2017-07-17T06:21:13.047Z,20.93
2017-07-17T06:22:12.752Z,20.95
2017-07-17T06:23:12.775Z,20.97
2017-07-17T06:24:13.122Z,21.03
2017-07-17T06:25:13.468Z,20.99
2017-07-17T06:26:13.170Z,21.03
2017-07-17T06:27:13.241Z,21.03
2017-07-17T06:28:13.539Z,21.05
2017-07-17T06:29:13.565Z,21.06
2017-07-17T06:30:13.261Z,21.03
2017-07-17T06:31:13.281Z,21.12
2017-07-17T06:32:13.317Z,21.12
2017-07-17T06:33:13.331Z,21.05
2017-07-17T06:34:13.032Z,21.03
2017-07-17T06:35:13.374Z,21.15
2017-07-17T06:36:13.724Z,21.15
2017-07-17T06:37:13.116Z,21.14
2017-07-17T06:38:13.456Z,21.14
2017-07-17T06:39:13.154Z,21.14
2017-07-17T06:40:13.509Z,21.18
2017-07-17T06:41:13.848Z,21.2
2017-07-17T06:42:13.552Z,21.25
2017-07-17T06:43:13.573Z,21.22
2017-07-17T06:44:13.913Z,21.25
2017-07-17T06:45:13.937Z,21.29
2017-07-17T06:46:13.647Z,21.25
2017-07-17T06:47:13.989Z,21.25
2017-07-17T06:48:13.756Z,21.25
2017-07-17T06:49:13.783Z,21.3
2017-07-17T06:50:13.780Z,21.32
2017-07-17T06:51:13.779Z,21.32
2017-07-17T06:52:13.789Z,21.3
2017-07-17T06:53:13.809Z,21.33
2017-07-17T06:54:13.825Z,21.35
2017-07-17T06:55:13.856Z,21.33
2017-07-17T06:56:13.657Z,21.36
2017-07-17T06:57:14.227Z,21.42
2017-07-17T06:58:14.255Z,21.42
2017-07-17T06:59:13.693Z,21.36
2017-07-17T07:00:14.301Z,21.39
2017-07-17T07:01:14.319Z,21.42
2017-07-17T07:02:14.353Z,21.43
2017-07-17T07:03:14.047Z,21.4
2017-07-17T07:04:14.430Z,21.4
2017-07-17T07:05:14.421Z,21.37
2017-07-17T07:06:13.789Z,21.39
2017-07-17T07:07:14.136Z,21.48
2017-07-17T07:08:14.159Z,21.58
2017-07-17T07:09:14.513Z,21.58
2017-07-17T07:10:14.214Z,21.55
2017-07-17T07:11:13.911Z,21.6
2017-07-17T07:12:14.580Z,21.57
2017-07-17T07:13:14.283Z,21.64
2017-07-17T07:14:14.635Z,21.61
2017-07-17T07:15:14.329Z,21.67
2017-07-17T07:16:14.675Z,21.7
2017-07-17T07:17:14.703Z,21.67
2017-07-17T07:18:14.077Z,21.79
2017-07-17T07:19:14.750Z,21.83
2017-07-17T07:20:14.449Z,21.82
2017-07-17T07:21:14.146Z,21.82
2017-07-17T07:22:14.173Z,21.95
2017-07-17T07:23:14.198Z,21.96
2017-07-17T07:24:14.863Z,21.99
2017-07-17T07:25:14.890Z,21.99
2017-07-17T07:26:14.915Z,22.04
2017-07-17T07:27:14.635Z,22.04
2017-07-17T07:28:14.645Z,22
2017-07-17T07:29:14.986Z,22.02
2017-07-17T07:30:14.685Z,22
2017-07-17T07:31:15.041Z,22
2017-07-17T07:32:14.422Z,22.06
2017-07-17T07:33:14.760Z,22.06
2017-07-17T07:34:14.790Z,22.17
2017-07-17T07:35:14.808Z,22.14
2017-07-17T07:36:15.185Z,22.18
2017-07-17T07:37:14.535Z,22.1
2017-07-17T07:38:15.209Z,22.18
2017-07-17T07:39:14.907Z,22.23
2017-07-17T07:40:14.934Z,22.26
2017-07-17T07:41:15.280Z,22.26
2017-07-17T07:42:14.979Z,22.33
2017-07-17T07:43:15.001Z,22.39
2017-07-17T07:44:15.356Z,22.39
2017-07-17T07:45:15.055Z,22.44
2017-07-17T07:46:15.072Z,22.53
2017-07-17T07:47:15.099Z,22.54
2017-07-17T07:48:15.448Z,22.45
2017-07-17T07:49:15.150Z,22.5
2017-07-17T07:50:15.171Z,22.47
2017-07-17T07:51:15.201Z,22.47
2017-07-17T07:52:14.900Z,22.53
2017-07-17T07:53:15.566Z,22.59
2017-07-17T07:54:14.944Z,22.55
2017-07-17T07:55:15.617Z,22.73
2017-07-17T07:56:15.648Z,22.7
2017-07-17T07:57:15.346Z,22.69
2017-07-17T07:58:15.040Z,22.68
2017-07-17T07:59:15.391Z,22.76
2017-07-17T08:00:15.743Z,22.8
2017-07-17T08:01:15.770Z,22.87
2017-07-17T08:02:15.789Z,22.99
2017-07-17T08:03:15.488Z,23.03
2017-07-17T08:04:15.514Z,23.08
2017-07-17T08:05:15.862Z,23.12
2017-07-17T08:06:15.566Z,23.2
2017-07-17T08:07:15.589Z,23.21
2017-07-17T08:08:15.933Z,23.31
2017-07-17T08:09:15.991Z,23.23
2017-07-17T08:10:15.662Z,23.39
2017-07-17T08:11:16.102Z,23.36
2017-07-17T08:12:16.100Z,23.39
2017-07-17T08:13:16.179Z,23.47
2017-07-17T08:14:15.859Z,23.5
2017-07-17T08:15:15.890Z,23.43
2017-07-17T08:16:16.037Z,23.5
2017-07-17T08:17:16.036Z,23.55
2017-07-17T08:18:16.360Z,23.62
2017-07-17T08:19:16.030Z,23.62
2017-07-17T08:20:16.355Z,23.66
2017-07-17T08:21:16.035Z,23.69
2017-07-17T08:22:16.487Z,23.69
2017-07-17T08:23:16.174Z,23.73
2017-07-17T08:24:16.503Z,23.66
2017-07-17T08:25:16.503Z,23.76
2017-07-17T08:26:16.280Z,23.83
2017-07-17T08:27:16.502Z,23.84
2017-07-17T08:28:16.563Z,23.91
2017-07-17T08:29:15.890Z,23.84
2017-07-17T08:30:16.249Z,23.93
2017-07-17T08:31:16.269Z,24.02
2017-07-17T08:32:16.578Z,23.99
2017-07-17T08:33:15.926Z,24.14
2017-07-17T08:34:16.260Z,24.14
2017-07-17T08:35:15.961Z,24.16
2017-07-17T08:36:16.313Z,24.21
2017-07-17T08:37:16.332Z,24.26
2017-07-17T08:38:16.363Z,24.39
2017-07-17T08:39:16.710Z,24.3
2017-07-17T08:40:16.408Z,24.39
2017-07-17T08:41:16.438Z,24.42
2017-07-17T08:42:16.138Z,24.4
2017-07-17T08:43:16.491Z,24.38
2017-07-17T08:44:16.895Z,24.47
2017-07-17T08:45:16.965Z,24.47
2017-07-17T08:46:16.649Z,24.47
2017-07-17T08:47:16.686Z,24.47
2017-07-17T08:48:16.625Z,24.39
2017-07-17T08:49:16.672Z,24.45
2017-07-17T08:50:16.796Z,24.51
2017-07-17T08:51:16.818Z,24.51
2017-07-17T08:52:16.811Z,24.48
2017-07-17T08:53:17.296Z,24.5
2017-07-17T08:54:16.655Z,24.47
2017-07-17T08:55:16.974Z,24.43
2017-07-17T08:56:16.975Z,24.42
2017-07-17T08:57:17.292Z,24.43
2017-07-17T08:58:17.104Z,24.4
2017-07-17T08:59:17.224Z,24.48
2017-07-17T09:00:17.241Z,24.43
2017-07-17T09:01:16.946Z,24.36
2017-07-17T09:02:17.301Z,24.35
2017-07-17T09:03:17.318Z,24.3
2017-07-17T09:04:17.090Z,24.26
2017-07-17T09:05:17.378Z,24.3
2017-07-17T09:06:17.091Z,24.3
2017-07-17T09:07:17.098Z,24.28
2017-07-17T09:08:17.127Z,24.28
2017-07-17T09:09:17.165Z,24.28
2017-07-17T09:10:17.508Z,24.23
2017-07-17T09:11:17.220Z,24.23
2017-07-17T09:12:17.561Z,24.2
2017-07-17T09:13:16.936Z,24.18
2017-07-17T09:14:16.958Z,24.24
2017-07-17T09:15:17.320Z,24.17
2017-07-17T09:16:17.339Z,24.2
2017-07-17T09:17:17.357Z,24.2
2017-07-17T09:18:17.706Z,24.14
2017-07-17T09:19:17.091Z,24.06
2017-07-17T09:20:17.436Z,24.03
2017-07-17T09:21:17.784Z,24.11
2017-07-17T09:22:17.165Z,24.1
2017-07-17T09:23:17.308Z,24.05
2017-07-17T09:24:18.007Z,24.03
2017-07-17T09:25:17.675Z,24.11
2017-07-17T09:26:17.698Z,24.01
2017-07-17T09:27:18.016Z,23.99
2017-07-17T09:28:17.740Z,23.99
2017-07-17T09:29:17.770Z,23.93
2017-07-17T09:30:17.693Z,23.95
2017-07-17T09:31:17.721Z,23.88
2017-07-17T09:32:18.069Z,23.96
2017-07-17T09:33:17.778Z,23.92
2017-07-17T09:34:17.916Z,23.91
2017-07-17T09:35:17.913Z,23.92
2017-07-17T09:36:18.170Z,23.86
2017-07-17T09:37:17.872Z,23.86
2017-07-17T09:38:18.224Z,23.91
2017-07-17T09:39:17.919Z,23.93
2017-07-17T09:40:17.626Z,23.99
2017-07-17T09:41:17.653Z,23.87
2017-07-17T09:42:17.679Z,23.91
2017-07-17T09:43:18.529Z,23.96
2017-07-17T09:44:18.376Z,23.98
2017-07-17T09:45:18.409Z,24.05
2017-07-17T09:46:18.109Z,24.01
2017-07-17T09:47:17.806Z,24.08
2017-07-17T09:48:17.833Z,24.11
2017-07-17T09:49:18.504Z,24.08
2017-07-17T09:50:18.209Z,24.11
2017-07-17T09:51:18.552Z,24.02
2017-07-17T09:52:18.342Z,24.05
2017-07-17T09:53:18.609Z,24.14
2017-07-17T09:54:18.646Z,24.06
2017-07-17T09:55:18.330Z,24.17
2017-07-17T09:56:18.042Z,24.08
2017-07-17T09:57:18.391Z,24.13
2017-07-17T09:58:18.087Z,24.16
2017-07-17T09:59:18.443Z,24.16
2017-07-17T10:00:18.798Z,24.13
2017-07-17T10:01:18.486Z,24.18
2017-07-17T10:02:18.841Z,24.16
2017-07-17T10:03:18.547Z,24.21
2017-07-17T10:04:18.247Z,24.18
2017-07-17T10:05:18.919Z,24.17
2017-07-17T10:06:18.708Z,24.17
2017-07-17T10:07:18.972Z,24.18
2017-07-17T10:08:18.675Z,24.21
2017-07-17T10:09:18.696Z,24.26
2017-07-17T10:10:19.053Z,24.21
2017-07-17T10:11:18.494Z,24.28
2017-07-17T10:12:19.101Z,24.18
2017-07-17T10:13:18.804Z,24.21
2017-07-17T10:14:18.831Z,24.28
2017-07-17T10:15:18.850Z,24.26
2017-07-17T10:16:18.875Z,24.29
2017-07-17T10:17:18.581Z,24.3
2017-07-17T10:18:18.930Z,24.23
2017-07-17T10:19:18.630Z,24.28
2017-07-17T10:20:19.297Z,24.35
2017-07-17T10:21:19.006Z,24.4
2017-07-17T10:22:19.029Z,24.33
2017-07-17T10:23:19.060Z,24.36
2017-07-17T10:24:19.409Z,24.36
2017-07-17T10:25:18.785Z,24.39
2017-07-17T10:26:18.816Z,24.33
2017-07-17T10:27:19.493Z,24.39
2017-07-17T10:28:18.870Z,24.36
2017-07-17T10:29:19.547Z,24.3
2017-07-17T10:30:19.241Z,24.32
2017-07-17T10:31:19.270Z,24.33
2017-07-17T10:32:19.292Z,24.4
2017-07-17T10:33:19.321Z,24.39
2017-07-17T10:34:19.348Z,24.36
2017-07-17T10:35:19.696Z,24.38
2017-07-17T10:36:19.419Z,24.36
2017-07-17T10:37:19.762Z,24.38
2017-07-17T10:38:19.448Z,24.42
2017-07-17T10:39:19.803Z,24.36
2017-07-17T10:40:19.832Z,24.45
2017-07-17T10:41:19.546Z,24.38
2017-07-17T10:42:19.877Z,24.4
2017-07-17T10:43:19.255Z,24.45
2017-07-17T10:44:19.610Z,24.48
2017-07-17T10:45:19.632Z,24.38
2017-07-17T10:46:19.985Z,24.39
2017-07-17T10:47:20.046Z,24.45
2017-07-17T10:48:20.031Z,24.39
2017-07-17T10:49:19.734Z,24.45
2017-07-17T10:50:19.436Z,24.43
2017-07-17T10:51:20.105Z,24.42
2017-07-17T10:52:20.261Z,24.38
2017-07-17T10:53:19.982Z,24.45
2017-07-17T10:54:19.989Z,24.43
2017-07-17T10:55:20.312Z,24.39
2017-07-17T10:56:19.998Z,24.36
2017-07-17T10:57:20.037Z,24.45
2017-07-17T10:58:20.409Z,24.45
2017-07-17T10:59:20.058Z,24.45
2017-07-17T11:00:19.769Z,24.47
2017-07-17T11:01:19.741Z,24.54
2017-07-17T11:02:19.752Z,24.48
2017-07-17T11:03:20.423Z,24.43
2017-07-17T11:04:20.125Z,24.54
2017-07-17T11:05:20.476Z,24.51
2017-07-17T11:06:20.184Z,24.48
2017-07-17T11:07:20.332Z,24.6
2017-07-17T11:08:20.232Z,24.51
2017-07-17T11:09:20.253Z,24.54
2017-07-17T11:10:20.601Z,24.51
2017-07-17T11:11:20.309Z,24.43
2017-07-17T11:12:20.658Z,24.43
2017-07-17T11:13:20.367Z,24.45
2017-07-17T11:14:20.723Z,24.54
2017-07-17T11:15:20.412Z,24.53
2017-07-17T11:16:20.437Z,24.53
2017-07-17T11:17:20.513Z,24.45
2017-07-17T11:18:20.857Z,24.55
2017-07-17T11:19:20.638Z,24.5
2017-07-17T11:20:20.960Z,24.53
2017-07-17T11:21:20.686Z,24.57
2017-07-17T11:22:21.148Z,24.54
2017-07-17T11:23:21.151Z,24.6
2017-07-17T11:24:20.825Z,24.57
2017-07-17T11:25:20.518Z,24.57
2017-07-17T11:26:20.840Z,24.61
2017-07-17T11:27:21.161Z,24.6
2017-07-17T11:28:21.255Z,24.57
2017-07-17T11:29:20.976Z,24.68
2017-07-17T11:30:20.807Z,24.66
2017-07-17T11:31:20.827Z,24.68
2017-07-17T11:32:21.186Z,24.69
2017-07-17T11:33:20.882Z,24.68
2017-07-17T11:34:20.910Z,24.69
2017-07-17T11:35:21.262Z,24.76
2017-07-17T11:36:21.283Z,24.74
2017-07-17T11:37:20.991Z,24.78
2017-07-17T11:38:20.686Z,24.77
2017-07-17T11:39:20.721Z,24.84
2017-07-17T11:40:21.073Z,24.86
2017-07-17T11:41:21.089Z,24.88
2017-07-17T11:42:21.120Z,24.81
2017-07-17T11:43:20.824Z,24.86
2017-07-17T11:44:21.173Z,24.81
2017-07-17T11:45:21.207Z,24.88
2017-07-17T11:56:48.597Z,24.86
2017-07-17T11:58:48.653Z,24.88
2017-07-17T11:59:48.676Z,24.86
2017-07-17T12:00:48.702Z,24.86
2017-07-17T12:01:49.055Z,24.88
2017-07-17T12:02:48.754Z,24.91
2017-07-17T12:03:49.110Z,24.85
2017-07-17T12:04:48.825Z,24.84
2017-07-17T12:05:49.157Z,24.88
2017-07-17T12:06:48.865Z,24.91
2017-07-17T12:07:48.895Z,24.84
2017-07-17T12:08:49.284Z,24.95
2017-07-17T12:09:48.945Z,24.86
2017-07-17T12:10:48.990Z,24.81
2017-07-17T12:11:49.320Z,24.88
2017-07-17T12:12:49.027Z,24.88
2017-07-17T12:13:49.368Z,24.84
2017-07-17T12:14:48.754Z,24.84
2017-07-17T12:15:49.102Z,24.85
2017-07-17T12:16:49.130Z,24.85
2017-07-17T12:17:49.158Z,24.86
2017-07-17T12:18:49.191Z,24.88
2017-07-17T12:19:49.210Z,24.88
2017-07-17T12:20:49.325Z,24.84
2017-07-17T12:21:49.345Z,24.84
2017-07-17T12:22:49.344Z,24.8
2017-07-17T12:23:49.646Z,24.76
2017-07-17T12:24:49.666Z,24.8
2017-07-17T12:25:49.367Z,24.7
2017-07-17T12:26:49.399Z,24.81
2017-07-17T12:27:49.747Z,24.76
2017-07-17T12:28:49.139Z,24.74
2017-07-17T12:29:49.801Z,24.73
2017-07-17T12:30:49.520Z,24.74
2017-07-17T12:31:49.529Z,24.73
2017-07-17T12:32:49.876Z,24.63
2017-07-17T12:33:50.050Z,24.7
2017-07-17T12:34:49.824Z,24.65
2017-07-17T12:35:49.405Z,24.58
2017-07-17T12:36:49.685Z,24.63
2017-07-17T12:37:50.021Z,24.6
2017-07-17T12:38:49.722Z,24.63
2017-07-17T12:39:49.748Z,24.61
2017-07-17T12:40:49.768Z,24.63
2017-07-17T12:41:49.789Z,24.65
2017-07-17T12:42:49.496Z,24.54
2017-07-17T12:43:49.521Z,24.65
2017-07-17T12:44:49.869Z,24.63
2017-07-17T12:45:49.899Z,24.68
2017-07-17T12:46:50.265Z,24.73
2017-07-17T12:47:49.954Z,24.69
2017-07-17T12:48:49.985Z,24.85
2017-07-17T12:49:49.999Z,24.86
2017-07-17T12:50:50.358Z,24.85
2017-07-17T12:51:50.392Z,24.8
2017-07-17T12:52:50.098Z,24.85
2017-07-17T12:53:50.534Z,24.81
2017-07-17T12:54:50.572Z,24.92
2017-07-17T12:55:50.237Z,25.04
2017-07-17T12:56:50.192Z,25.11
2017-07-17T12:57:50.243Z,25.13
2017-07-17T12:58:50.564Z,25.21
2017-07-17T12:59:50.268Z,25.28
2017-07-17T13:00:49.972Z,25.25
2017-07-17T13:01:50.724Z,25.4
2017-07-17T13:02:50.356Z,25.32
2017-07-17T13:03:50.721Z,25.55
2017-07-17T13:04:50.855Z,25.63
2017-07-17T13:05:50.445Z,25.75
2017-07-17T13:06:50.464Z,25.84
2017-07-17T13:07:50.490Z,25.83